createdAt,value
2023-04-30T00:01:12.579Z,11
2023-04-30T00:07:02.287Z,11
2023-04-30T00:12:02.283Z,10.9
2023-04-30T00:17:12.561Z,10.8
2023-04-30T00:22:12.597Z,10.7
2023-04-30T00:28:02.314Z,10.7
2023-04-30T00:33:12.583Z,10.5
2023-04-30T00:38:12.538Z,10.4
2023-04-30T00:44:02.275Z,10.3
2023-04-30T00:49:12.523Z,10.2
2023-04-30T00:54:12.573Z,10.2
2023-04-30T01:00:02.280Z,10.2
2023-04-30T01:05:12.572Z,9.7
2023-04-30T01:10:12.583Z,9.5
2023-04-30T01:16:02.324Z,9.7
2023-04-30T01:21:12.567Z,9.5
2023-04-30T01:26:12.611Z,9.6
2023-04-30T01:32:02.284Z,9.7
2023-04-30T01:37:02.305Z,9.4
2023-04-30T01:42:12.554Z,9.4
2023-04-30T01:47:12.582Z,9.4
2023-04-30T01:53:02.290Z,9.4
2023-04-30T01:58:02.295Z,9.3
2023-04-30T02:03:12.708Z,9.4
2023-04-30T02:09:02.363Z,9.1
2023-04-30T02:14:12.632Z,8.9
2023-04-30T02:20:02.347Z,8.4
2023-04-30T02:25:12.754Z,8.9
2023-04-30T02:30:12.592Z,9.1
2023-04-30T02:35:12.582Z,9.1
2023-04-30T02:41:02.280Z,9.1
2023-04-30T02:46:02.337Z,9
2023-04-30T02:51:12.550Z,8.6
2023-04-30T02:57:02.271Z,8.8
2023-04-30T03:02:02.275Z,8.8
2023-04-30T03:07:12.528Z,8.6
2023-04-30T03:12:12.560Z,8.7
2023-04-30T03:17:12.582Z,8.7
2023-04-30T03:23:02.229Z,8.8
2023-04-30T03:28:02.352Z,8.9
2023-04-30T03:33:12.619Z,8.8
2023-04-30T03:38:12.579Z,8.7
2023-04-30T03:44:02.260Z,8.7
2023-04-30T03:49:12.549Z,8.6
2023-04-30T03:55:02.253Z,8.6
2023-04-30T04:00:02.318Z,8.4
2023-04-30T04:05:12.532Z,8.4
2023-04-30T04:10:12.642Z,8.3
2023-04-30T04:16:02.309Z,8.3
2023-04-30T04:21:02.261Z,8.2
2023-04-30T04:26:02.275Z,8.2
2023-04-30T04:31:12.561Z,8.3
2023-04-30T04:37:02.330Z,8.3
2023-04-30T04:42:12.545Z,8.3
2023-04-30T04:47:12.545Z,8.1
2023-04-30T04:52:12.594Z,8.1
2023-04-30T04:58:02.227Z,8.3
2023-04-30T05:03:02.335Z,8.3
2023-04-30T05:08:12.561Z,8.4
2023-04-30T05:14:02.280Z,8.4
2023-04-30T05:19:12.555Z,8.7
2023-04-30T05:25:02.234Z,8.9
2023-04-30T05:30:02.267Z,9.7
2023-04-30T05:35:02.293Z,10.6
2023-04-30T05:40:12.570Z,11.8
2023-04-30T05:45:12.588Z,13
2023-04-30T05:50:12.563Z,13.9
2023-04-30T05:56:02.281Z,14.6
2023-04-30T06:01:02.266Z,15.4
2023-04-30T06:06:12.555Z,16.2
2023-04-30T06:11:12.562Z,16.7
2023-04-30T06:16:12.619Z,17.4
2023-04-30T06:22:02.261Z,18
2023-04-30T06:27:02.249Z,18.1
2023-04-30T06:32:02.277Z,19
2023-04-30T06:37:02.298Z,19.5
2023-04-30T06:42:12.526Z,19.9
2023-04-30T06:47:12.557Z,19.7
2023-04-30T06:52:12.580Z,19.2
2023-04-30T06:58:02.258Z,20.4
2023-04-30T07:03:12.613Z,21.6
2023-04-30T07:09:02.266Z,21
2023-04-30T07:14:02.272Z,21.3
2023-04-30T07:19:02.286Z,21.9
2023-04-30T07:24:02.291Z,23
2023-04-30T07:29:02.294Z,22
2023-04-30T07:34:12.588Z,22.9
2023-04-30T07:40:02.319Z,23.7
2023-04-30T07:45:02.970Z,24
2023-04-30T07:50:12.591Z,24.5
2023-04-30T07:56:02.290Z,25.3
2023-04-30T08:01:02.305Z,25.4
2023-04-30T08:06:12.622Z,25.3
2023-04-30T08:12:02.333Z,26
2023-04-30T08:17:12.600Z,27.1
2023-04-30T08:23:02.309Z,27.7
2023-04-30T08:28:12.586Z,28.5
2023-04-30T08:33:12.617Z,28.5
2023-04-30T08:39:02.320Z,28.6
2023-04-30T08:44:02.335Z,28.8
2023-04-30T08:49:12.623Z,27.9
2023-04-30T08:54:12.596Z,28.1
2023-04-30T09:00:02.325Z,29
2023-04-30T09:05:02.354Z,28.9
2023-04-30T09:10:12.617Z,29.3
2023-04-30T09:15:12.592Z,28
2023-04-30T09:21:02.306Z,28.8
2023-04-30T09:26:02.317Z,27.4
2023-04-30T09:31:02.375Z,28.6
2023-04-30T09:36:12.612Z,27.3
2023-04-30T09:42:02.325Z,28.1
2023-04-30T09:47:02.378Z,27
2023-04-30T09:52:02.343Z,27.3
2023-04-30T09:57:02.449Z,27.2
2023-04-30T10:02:12.659Z,28
2023-04-30T10:07:15.330Z,28
2023-04-30T10:13:02.401Z,25.2
2023-04-30T10:18:12.809Z,27.3
2023-04-30T10:24:02.401Z,26.1
2023-04-30T10:31:02.436Z,26.3
2023-04-30T10:36:12.689Z,29.3
2023-04-30T10:41:22.902Z,29
2023-04-30T10:47:02.391Z,27.6
2023-04-30T10:52:12.621Z,25
2023-04-30T10:57:12.684Z,25.8
2023-04-30T11:03:02.392Z,25.4
2023-04-30T11:08:02.434Z,25.2
2023-04-30T11:13:02.446Z,25.7
2023-04-30T11:18:12.752Z,25.7
2023-04-30T11:23:12.754Z,25.2
2023-04-30T11:29:02.459Z,25.2
2023-04-30T11:34:02.424Z,25.3
2023-04-30T11:39:12.627Z,25.6
2023-04-30T11:44:12.655Z,25.4
2023-04-30T11:49:12.700Z,26.1
2023-04-30T11:55:02.373Z,26.2
2023-04-30T12:00:02.383Z,25.9
2023-04-30T12:05:02.435Z,25.5
2023-04-30T12:10:02.450Z,25.5
2023-04-30T12:15:02.428Z,25.3
2023-04-30T12:20:02.474Z,24.6
2023-04-30T12:25:12.716Z,23.7
2023-04-30T12:30:12.702Z,24.1
2023-04-30T12:35:12.751Z,24.4
2023-04-30T12:41:03.124Z,23.9
2023-04-30T12:46:02.519Z,23.9
2023-04-30T12:51:12.684Z,24.1
2023-04-30T12:56:12.675Z,23.9
2023-04-30T13:01:12.736Z,24.2
2023-04-30T13:07:02.411Z,23.3
2023-04-30T13:12:02.457Z,22.4
2023-04-30T13:17:12.701Z,22.5
2023-04-30T13:22:12.688Z,22.9
2023-04-30T13:28:02.414Z,22.8
2023-04-30T13:33:12.837Z,22.8
2023-04-30T13:38:12.743Z,22.8
2023-04-30T13:44:02.447Z,22.4
2023-04-30T13:49:12.695Z,22
2023-04-30T13:55:02.471Z,22.4
2023-04-30T14:00:02.673Z,22.6
2023-04-30T14:05:12.691Z,22.9
2023-04-30T14:11:02.405Z,22.5
2023-04-30T14:16:04.454Z,23
2023-04-30T14:21:12.701Z,23
2023-04-30T14:26:12.765Z,23.2
2023-04-30T14:32:02.507Z,22.8
2023-04-30T14:37:12.697Z,22.2
2023-04-30T14:42:12.788Z,22.1
2023-04-30T14:48:04.706Z,21.5
2023-04-30T14:53:12.805Z,22.2
2023-04-30T14:59:02.487Z,22.2
2023-04-30T15:04:12.798Z,21.5
2023-04-30T15:10:02.482Z,21.5
2023-04-30T15:15:12.710Z,20.9
2023-04-30T15:20:12.807Z,21.6
2023-04-30T15:26:02.465Z,22.2
2023-04-30T15:31:12.798Z,22.4
2023-04-30T15:36:12.716Z,22.1
2023-04-30T15:41:12.723Z,22.2
2023-04-30T15:47:02.480Z,21.2
2023-04-30T15:52:12.730Z,21.5
2023-04-30T15:58:02.432Z,21.6
2023-04-30T16:03:02.546Z,21.5
2023-04-30T16:08:02.456Z,21.5
2023-04-30T16:13:02.521Z,21.8
2023-04-30T16:18:12.748Z,21.7
2023-04-30T16:24:02.477Z,21.2
2023-04-30T16:29:02.456Z,21.5
2023-04-30T16:34:02.471Z,21.3
2023-04-30T16:39:13.862Z,20.7
2023-04-30T16:44:12.802Z,20.9
2023-04-30T16:50:02.440Z,21.1
2023-04-30T16:55:02.526Z,21
2023-04-30T17:00:12.748Z,20.9
2023-04-30T17:05:12.759Z,20.8
2023-04-30T17:10:12.783Z,20.6
2023-04-30T17:16:09.015Z,20.6
2023-04-30T17:21:12.797Z,20.4
2023-04-30T17:27:02.489Z,20.2
2023-04-30T17:32:12.820Z,20.2
2023-04-30T17:38:02.486Z,20.2
2023-04-30T17:43:12.748Z,19.8
2023-04-30T17:48:12.793Z,19.5
2023-04-30T17:53:12.780Z,19.8
2023-04-30T17:59:02.489Z,19.7
2023-04-30T18:04:02.610Z,19.4
2023-04-30T18:09:02.505Z,19.3
2023-04-30T18:14:12.781Z,19.3
2023-04-30T18:19:12.827Z,19.1
2023-04-30T18:25:02.463Z,18.9
2023-04-30T18:30:02.599Z,18.7
2023-04-30T18:35:12.762Z,18.5
2023-04-30T18:40:12.800Z,18.3
2023-04-30T18:51:12.768Z,17.9
2023-04-30T18:56:12.799Z,17.7
2023-04-30T19:02:02.569Z,17.5
2023-04-30T19:07:12.765Z,17.2
2023-04-30T19:12:12.812Z,17
2023-04-30T19:17:12.999Z,16.9
2023-04-30T19:23:02.604Z,16.9
2023-04-30T19:28:12.831Z,16.6
2023-04-30T19:33:12.886Z,16.5
2023-04-30T19:39:02.566Z,16.2
2023-04-30T19:44:02.575Z,16.2
2023-04-30T19:49:12.840Z,16.1
2023-04-30T19:55:02.548Z,15.8
2023-04-30T20:00:02.572Z,15.8
2023-04-30T20:05:03.468Z,15.6
2023-04-30T20:10:12.863Z,15.4
2023-04-30T20:16:02.631Z,15.4
2023-04-30T20:21:02.583Z,15.4
2023-04-30T20:26:12.838Z,15.3
2023-04-30T20:31:12.919Z,15.2
2023-04-30T20:36:12.856Z,15.1
2023-04-30T20:42:02.594Z,15
2023-04-30T20:47:12.873Z,14.8
2023-04-30T20:53:02.597Z,14.5
2023-04-30T20:58:12.860Z,14.4
2023-04-30T21:04:02.591Z,14.5
2023-04-30T21:09:12.881Z,14.1
2023-04-30T21:15:02.711Z,13.8
2023-04-30T21:20:02.616Z,13.9
2023-04-30T21:25:02.621Z,13.8
2023-04-30T21:30:12.902Z,13.4
2023-04-30T21:36:02.596Z,13.2
2023-04-30T21:41:12.854Z,13.5
2023-04-30T21:46:12.946Z,13.5
2023-04-30T21:52:02.585Z,13.3
2023-04-30T21:57:02.665Z,13.5
2023-04-30T22:02:07.325Z,13.5
2023-04-30T22:07:12.883Z,13.3
2023-04-30T22:12:12.865Z,13.5
2023-04-30T22:17:12.898Z,13.6
2023-04-30T22:22:12.875Z,13.3
2023-04-30T22:28:02.579Z,13.5
2023-04-30T22:33:12.879Z,13.5
2023-04-30T22:38:12.864Z,13.5
2023-04-30T22:43:12.888Z,13.5
2023-04-30T22:48:12.971Z,13.7
2023-04-30T22:54:02.599Z,13.8
2023-04-30T22:59:12.880Z,13.9
2023-04-30T23:05:02.634Z,14
2023-04-30T23:10:12.877Z,14
2023-04-30T23:15:12.893Z,13.9
2023-04-30T23:21:02.576Z,13.9
2023-04-30T23:26:02.584Z,13.8
2023-04-30T23:31:02.598Z,13.8
2023-04-30T23:36:12.945Z,13.7
2023-04-30T23:42:02.597Z,13.7
2023-04-30T23:47:02.582Z,13.6
2023-04-30T23:52:02.609Z,13.5
2023-04-30T23:57:12.882Z,13.4
